Terminal Aerodrome Forecast
Issued by NWS

Home | Current Version | Previous Version | Text Only | Print | Product List | Glossary On
Versions: 1 2 3 4 5 6 7 8 9 10 11 12 13 14 15 16 17 18
000
FTUS46 KEKA 241243 AAA
TAFUKI
TAF AMD
KUKI 241243Z 2413/2512 31005KT P6SM VCSH SCT020 BKN030
      TEMPO 2413/2417 1SM BR BKN001 OVC005
     FM241800 VRB03KT P6SM SCT025 SCT050
     FM242100 34003KT P6SM SKC
     FM250200 00000KT P6SM SKC
     FM250900 00000KT P6SM SCT150=

USA.gov is the U.S. government's official web portal to all federal, state and local government web resources and services.